sensor_id;sensor_type;location;lat;lon;timestamp;temperature;humidity
31661;DHT22;18267;52.234;7.444;2022-11-14T00:00:43;7.30;99.90
31661;DHT22;18267;52.234;7.444;2022-11-14T00:03:10;7.20;99.90
31661;DHT22;18267;52.234;7.444;2022-11-14T00:05:41;7.20;99.90
31661;DHT22;18267;52.234;7.444;2022-11-14T00:08:31;7.20;99.90
31661;DHT22;18267;52.234;7.444;2022-11-14T00:10:57;7.20;99.90
31661;DHT22;18267;52.234;7.444;2022-11-14T00:13:22;7.20;99.90
31661;DHT22;18267;52.234;7.444;2022-11-14T00:15:49;7.00;99.90
31661;DHT22;18267;52.234;7.444;2022-11-14T00:18:16;7.10;99.90
31661;DHT22;18267;52.234;7.444;2022-11-14T00:20:42;7.10;99.90
31661;DHT22;18267;52.234;7.444;2022-11-14T00:23:07;7.00;99.90
31661;DHT22;18267;52.234;7.444;2022-11-14T00:25:33;7.00;99.90
31661;DHT22;18267;52.234;7.444;2022-11-14T00:27:58;7.10;99.90
31661;DHT22;18267;52.234;7.444;2022-11-14T00:30:24;7.10;99.90
31661;DHT22;18267;52.234;7.444;2022-11-14T00:32:50;6.90;99.90
31661;DHT22;18267;52.234;7.444;2022-11-14T00:35:16;7.00;99.90
31661;DHT22;18267;52.234;7.444;2022-11-14T00:37:41;6.90;99.90
31661;DHT22;18267;52.234;7.444;2022-11-14T00:40:07;6.90;99.90
31661;DHT22;18267;52.234;7.444;2022-11-14T00:42:33;6.90;99.90
31661;DHT22;18267;52.234;7.444;2022-11-14T00:44:59;7.00;99.90
31661;DHT22;18267;52.234;7.444;2022-11-14T00:47:24;7.00;99.90
31661;DHT22;18267;52.234;7.444;2022-11-14T00:49:50;6.90;99.90
31661;DHT22;18267;52.234;7.444;2022-11-14T00:52:15;6.90;99.90
31661;DHT22;18267;52.234;7.444;2022-11-14T00:54:41;6.90;99.90
31661;DHT22;18267;52.234;7.444;2022-11-14T00:57:06;6.90;99.90
31661;DHT22;18267;52.234;7.444;2022-11-14T00:59:32;7.00;99.90
31661;DHT22;18267;52.234;7.444;2022-11-14T01:01:57;7.00;99.90
31661;DHT22;18267;52.234;7.444;2022-11-14T01:04:23;7.10;99.90
31661;DHT22;18267;52.234;7.444;2022-11-14T01:06:49;7.10;99.90
31661;DHT22;18267;52.234;7.444;2022-11-14T01:09:14;7.10;99.90
31661;DHT22;18267;52.234;7.444;2022-11-14T01:11:41;7.10;99.90
31661;DHT22;18267;52.234;7.444;2022-11-14T01:14:07;7.10;99.90
31661;DHT22;18267;52.234;7.444;2022-11-14T01:16:32;6.90;99.90
31661;DHT22;18267;52.234;7.444;2022-11-14T01:19:00;6.90;99.90
31661;DHT22;18267;52.234;7.444;2022-11-14T01:21:26;6.90;99.90
31661;DHT22;18267;52.234;7.444;2022-11-14T01:23:52;6.90;99.90
31661;DHT22;18267;52.234;7.444;2022-11-14T01:26:17;6.90;99.90
31661;DHT22;18267;52.234;7.444;2022-11-14T01:28:43;6.80;99.90
31661;DHT22;18267;52.234;7.444;2022-11-14T01:31:21;6.80;99.90
31661;DHT22;18267;52.234;7.444;2022-11-14T01:33:51;6.80;99.90
31661;DHT22;18267;52.234;7.444;2022-11-14T01:36:17;6.70;99.90
31661;DHT22;18267;52.234;7.444;2022-11-14T01:38:43;6.80;99.90
31661;DHT22;18267;52.234;7.444;2022-11-14T01:41:14;6.80;99.90
31661;DHT22;18267;52.234;7.444;2022-11-14T01:43:40;6.90;99.90
31661;DHT22;18267;52.234;7.444;2022-11-14T01:46:13;6.80;99.90
31661;DHT22;18267;52.234;7.444;2022-11-14T01:49:02;6.80;99.90
31661;DHT22;18267;52.234;7.444;2022-11-14T01:51:36;6.80;99.90
31661;DHT22;18267;52.234;7.444;2022-11-14T01:54:07;6.80;99.90
31661;DHT22;18267;52.234;7.444;2022-11-14T01:56:38;6.70;99.90
31661;DHT22;18267;52.234;7.444;2022-11-14T01:59:09;6.60;99.90
31661;DHT22;18267;52.234;7.444;2022-11-14T02:01:40;6.70;99.90
31661;DHT22;18267;52.234;7.444;2022-11-14T02:04:06;6.80;99.90
31661;DHT22;18267;52.234;7.444;2022-11-14T02:06:32;6.70;99.90
31661;DHT22;18267;52.234;7.444;2022-11-14T02:09:03;6.70;99.90
31661;DHT22;18267;52.234;7.444;2022-11-14T02:11:32;6.70;99.90
31661;DHT22;18267;52.234;7.444;2022-11-14T02:13:59;6.70;99.90
31661;DHT22;18267;52.234;7.444;2022-11-14T02:16:26;6.80;99.90
31661;DHT22;18267;52.234;7.444;2022-11-14T02:18:52;6.80;99.90
31661;DHT22;18267;52.234;7.444;2022-11-14T02:21:17;6.80;99.90
31661;DHT22;18267;52.234;7.444;2022-11-14T02:23:43;6.70;99.90
31661;DHT22;18267;52.234;7.444;2022-11-14T02:26:09;6.80;99.90
31661;DHT22;18267;52.234;7.444;2022-11-14T02:28:34;6.70;99.90
31661;DHT22;18267;52.234;7.444;2022-11-14T02:31:00;6.60;99.90
31661;DHT22;18267;52.234;7.444;2022-11-14T02:33:25;6.60;99.90
31661;DHT22;18267;52.234;7.444;2022-11-14T02:35:51;6.50;99.90
31661;DHT22;18267;52.234;7.444;2022-11-14T02:38:17;6.60;99.90
31661;DHT22;18267;52.234;7.444;2022-11-14T02:40:42;6.70;99.90
31661;DHT22;18267;52.234;7.444;2022-11-14T02:43:08;6.70;99.90
31661;DHT22;18267;52.234;7.444;2022-11-14T02:45:33;6.70;99.90
31661;DHT22;18267;52.234;7.444;2022-11-14T02:47:59;6.70;99.90
31661;DHT22;18267;52.234;7.444;2022-11-14T02:50:24;6.70;99.90
31661;DHT22;18267;52.234;7.444;2022-11-14T02:52:50;6.70;99.90
31661;DHT22;18267;52.234;7.444;2022-11-14T02:55:18;6.80;99.90
31661;DHT22;18267;52.234;7.444;2022-11-14T02:57:44;6.90;99.90
31661;DHT22;18267;52.234;7.444;2022-11-14T03:00:10;6.80;99.90
31661;DHT22;18267;52.234;7.444;2022-11-14T03:02:35;6.80;99.90
31661;DHT22;18267;52.234;7.444;2022-11-14T03:05:01;6.70;99.90
31661;DHT22;18267;52.234;7.444;2022-11-14T03:07:27;6.70;99.90
31661;DHT22;18267;52.234;7.444;2022-11-14T03:09:52;6.60;99.90
31661;DHT22;18267;52.234;7.444;2022-11-14T03:12:18;6.60;99.90
31661;DHT22;18267;52.234;7.444;2022-11-14T03:14:44;6.60;99.90
31661;DHT22;18267;52.234;7.444;2022-11-14T03:17:10;6.50;99.90
31661;DHT22;18267;52.234;7.444;2022-11-14T03:19:35;6.60;99.90
31661;DHT22;18267;52.234;7.444;2022-11-14T03:22:01;6.50;99.90
31661;DHT22;18267;52.234;7.444;2022-11-14T03:24:26;6.50;99.90
31661;DHT22;18267;52.234;7.444;2022-11-14T03:26:52;6.50;99.90
31661;DHT22;18267;52.234;7.444;2022-11-14T03:29:18;6.50;99.90
31661;DHT22;18267;52.234;7.444;2022-11-14T03:31:43;6.50;99.90
31661;DHT22;18267;52.234;7.444;2022-11-14T03:34:09;6.50;99.90
31661;DHT22;18267;52.234;7.444;2022-11-14T03:36:36;6.60;99.90
31661;DHT22;18267;52.234;7.444;2022-11-14T03:39:03;6.50;99.90
31661;DHT22;18267;52.234;7.444;2022-11-14T03:41:29;6.60;99.90
31661;DHT22;18267;52.234;7.444;2022-11-14T03:43:54;6.60;99.90
31661;DHT22;18267;52.234;7.444;2022-11-14T03:46:20;6.50;99.90
31661;DHT22;18267;52.234;7.444;2022-11-14T03:48:46;6.40;99.90
31661;DHT22;18267;52.234;7.444;2022-11-14T03:51:12;6.40;99.90
31661;DHT22;18267;52.234;7.444;2022-11-14T03:53:37;6.40;99.90
31661;DHT22;18267;52.234;7.444;2022-11-14T03:56:03;6.40;99.90
31661;DHT22;18267;52.234;7.444;2022-11-14T03:58:29;6.30;99.90
31661;DHT22;18267;52.234;7.444;2022-11-14T04:00:54;6.30;99.90
31661;DHT22;18267;52.234;7.444;2022-11-14T04:03:21;6.30;99.90
31661;DHT22;18267;52.234;7.444;2022-11-14T04:05:48;6.30;99.90
31661;DHT22;18267;52.234;7.444;2022-11-14T04:08:13;6.30;99.90
31661;DHT22;18267;52.234;7.444;2022-11-14T04:10:39;6.20;99.90
31661;DHT22;18267;52.234;7.444;2022-11-14T04:13:06;6.20;99.90
31661;DHT22;18267;52.234;7.444;2022-11-14T04:15:32;6.10;99.90
31661;DHT22;18267;52.234;7.444;2022-11-14T04:17:58;6.10;99.90
31661;DHT22;18267;52.234;7.444;2022-11-14T04:20:23;6.10;99.90
31661;DHT22;18267;52.234;7.444;2022-11-14T04:22:49;6.20;99.90
31661;DHT22;18267;52.234;7.444;2022-11-14T04:25:14;6.30;99.90
31661;DHT22;18267;52.234;7.444;2022-11-14T04:27:40;6.20;99.90
31661;DHT22;18267;52.234;7.444;2022-11-14T04:30:06;6.20;99.90
31661;DHT22;18267;52.234;7.444;2022-11-14T04:32:32;6.20;99.90
31661;DHT22;18267;52.234;7.444;2022-11-14T04:34:57;6.20;99.90
31661;DHT22;18267;52.234;7.444;2022-11-14T04:37:23;6.30;99.90
31661;DHT22;18267;52.234;7.444;2022-11-14T04:39:49;6.30;99.90
31661;DHT22;18267;52.234;7.444;2022-11-14T04:42:14;6.20;99.90
31661;DHT22;18267;52.234;7.444;2022-11-14T04:44:40;6.20;99.90
31661;DHT22;18267;52.234;7.444;2022-11-14T04:47:05;6.20;99.90
31661;DHT22;18267;52.234;7.444;2022-11-14T04:49:31;6.30;99.90
31661;DHT22;18267;52.234;7.444;2022-11-14T04:51:56;6.20;99.90
31661;DHT22;18267;52.234;7.444;2022-11-14T04:54:22;6.20;99.90
31661;DHT22;18267;52.234;7.444;2022-11-14T04:56:47;6.30;99.90
31661;DHT22;18267;52.234;7.444;2022-11-14T04:59:13;6.30;99.90
31661;DHT22;18267;52.234;7.444;2022-11-14T05:01:39;6.20;99.90
31661;DHT22;18267;52.234;7.444;2022-11-14T05:04:04;6.20;99.90
31661;DHT22;18267;52.234;7.444;2022-11-14T05:06:30;6.20;99.90
31661;DHT22;18267;52.234;7.444;2022-11-14T05:08:55;6.20;99.90
31661;DHT22;18267;52.234;7.444;2022-11-14T05:11:21;6.10;99.90
31661;DHT22;18267;52.234;7.444;2022-11-14T05:13:47;6.20;99.90
31661;DHT22;18267;52.234;7.444;2022-11-14T05:16:13;6.20;99.90
31661;DHT22;18267;52.234;7.444;2022-11-14T05:18:39;6.10;99.90
31661;DHT22;18267;52.234;7.444;2022-11-14T05:21:04;6.10;99.90
31661;DHT22;18267;52.234;7.444;2022-11-14T05:23:30;6.20;99.90
31661;DHT22;18267;52.234;7.444;2022-11-14T05:26:06;6.20;99.90
31661;DHT22;18267;52.234;7.444;2022-11-14T05:28:32;6.10;99.90
31661;DHT22;18267;52.234;7.444;2022-11-14T05:31:06;6.20;99.90
31661;DHT22;18267;52.234;7.444;2022-11-14T05:33:33;6.00;99.90
31661;DHT22;18267;52.234;7.444;2022-11-14T05:36:09;5.90;99.90
31661;DHT22;18267;52.234;7.444;2022-11-14T05:38:36;5.80;99.90
31661;DHT22;18267;52.234;7.444;2022-11-14T05:41:08;5.70;99.90
31661;DHT22;18267;52.234;7.444;2022-11-14T05:43:35;5.60;99.90
31661;DHT22;18267;52.234;7.444;2022-11-14T05:46:03;5.50;99.90
31661;DHT22;18267;52.234;7.444;2022-11-14T05:48:29;5.40;99.90
31661;DHT22;18267;52.234;7.444;2022-11-14T05:50:59;5.40;99.90
31661;DHT22;18267;52.234;7.444;2022-11-14T05:53:26;5.40;99.90
31661;DHT22;18267;52.234;7.444;2022-11-14T05:55:52;5.50;99.90
31661;DHT22;18267;52.234;7.444;2022-11-14T05:58:18;5.50;99.90
31661;DHT22;18267;52.234;7.444;2022-11-14T06:00:44;5.60;99.90
31661;DHT22;18267;52.234;7.444;2022-11-14T06:03:10;5.60;99.90
31661;DHT22;18267;52.234;7.444;2022-11-14T06:05:35;5.40;99.90
31661;DHT22;18267;52.234;7.444;2022-11-14T06:08:02;5.40;99.90
31661;DHT22;18267;52.234;7.444;2022-11-14T06:10:28;5.40;99.90
31661;DHT22;18267;52.234;7.444;2022-11-14T06:12:54;5.50;99.90
31661;DHT22;18267;52.234;7.444;2022-11-14T06:15:19;5.60;99.90
31661;DHT22;18267;52.234;7.444;2022-11-14T06:17:45;5.70;99.90
31661;DHT22;18267;52.234;7.444;2022-11-14T06:20:11;5.70;99.90
31661;DHT22;18267;52.234;7.444;2022-11-14T06:22:41;5.80;99.90
31661;DHT22;18267;52.234;7.444;2022-11-14T06:25:07;5.80;99.90
31661;DHT22;18267;52.234;7.444;2022-11-14T06:27:33;5.90;99.90
31661;DHT22;18267;52.234;7.444;2022-11-14T06:29:58;6.00;99.90
31661;DHT22;18267;52.234;7.444;2022-11-14T06:32:24;6.00;99.90
31661;DHT22;18267;52.234;7.444;2022-11-14T06:34:49;6.00;99.90
31661;DHT22;18267;52.234;7.444;2022-11-14T06:37:15;6.00;99.90
31661;DHT22;18267;52.234;7.444;2022-11-14T06:39:40;6.00;99.90
31661;DHT22;18267;52.234;7.444;2022-11-14T06:42:06;5.90;99.90
31661;DHT22;18267;52.234;7.444;2022-11-14T06:44:31;5.90;99.90
31661;DHT22;18267;52.234;7.444;2022-11-14T06:46:57;5.80;99.90
31661;DHT22;18267;52.234;7.444;2022-11-14T06:49:23;5.80;99.90
31661;DHT22;18267;52.234;7.444;2022-11-14T06:51:50;5.80;99.90
31661;DHT22;18267;52.234;7.444;2022-11-14T06:54:16;5.80;99.90
31661;DHT22;18267;52.234;7.444;2022-11-14T06:56:42;5.60;99.90
31661;DHT22;18267;52.234;7.444;2022-11-14T06:59:07;5.50;99.90
31661;DHT22;18267;52.234;7.444;2022-11-14T07:01:33;5.50;99.90
31661;DHT22;18267;52.234;7.444;2022-11-14T07:03:58;5.40;99.90
31661;DHT22;18267;52.234;7.444;2022-11-14T07:06:26;5.50;99.90
31661;DHT22;18267;52.234;7.444;2022-11-14T07:08:53;5.40;99.90
31661;DHT22;18267;52.234;7.444;2022-11-14T07:11:24;5.40;99.90
31661;DHT22;18267;52.234;7.444;2022-11-14T07:13:56;5.30;99.90
31661;DHT22;18267;52.234;7.444;2022-11-14T07:16:24;5.40;99.90
31661;DHT22;18267;52.234;7.444;2022-11-14T07:18:50;5.40;99.90
31661;DHT22;18267;52.234;7.444;2022-11-14T07:21:15;5.40;99.90
31661;DHT22;18267;52.234;7.444;2022-11-14T07:23:41;5.30;99.90
31661;DHT22;18267;52.234;7.444;2022-11-14T07:26:10;5.40;99.90
31661;DHT22;18267;52.234;7.444;2022-11-14T07:28:38;5.40;99.90
31661;DHT22;18267;52.234;7.444;2022-11-14T07:31:09;5.30;99.90
31661;DHT22;18267;52.234;7.444;2022-11-14T07:33:35;5.30;99.90
31661;DHT22;18267;52.234;7.444;2022-11-14T07:36:01;5.30;99.90
31661;DHT22;18267;52.234;7.444;2022-11-14T07:38:26;5.30;99.90
31661;DHT22;18267;52.234;7.444;2022-11-14T07:40:54;5.30;99.90
31661;DHT22;18267;52.234;7.444;2022-11-14T07:43:20;5.40;99.90
31661;DHT22;18267;52.234;7.444;2022-11-14T07:45:46;5.40;99.90
31661;DHT22;18267;52.234;7.444;2022-11-14T07:48:12;5.40;99.90
31661;DHT22;18267;52.234;7.444;2022-11-14T07:50:38;5.50;99.90
31661;DHT22;18267;52.234;7.444;2022-11-14T07:53:03;5.60;99.90
31661;DHT22;18267;52.234;7.444;2022-11-14T07:55:29;5.60;99.90
31661;DHT22;18267;52.234;7.444;2022-11-14T07:57:57;5.80;99.90
31661;DHT22;18267;52.234;7.444;2022-11-14T08:00:23;6.00;99.90
31661;DHT22;18267;52.234;7.444;2022-11-14T08:02:49;5.90;99.90
31661;DHT22;18267;52.234;7.444;2022-11-14T08:05:14;5.90;99.90
31661;DHT22;18267;52.234;7.444;2022-11-14T08:07:40;5.90;99.90
31661;DHT22;18267;52.234;7.444;2022-11-14T08:10:06;5.90;99.90
31661;DHT22;18267;52.234;7.444;2022-11-14T08:12:32;6.00;99.90
31661;DHT22;18267;52.234;7.444;2022-11-14T08:14:57;6.10;99.90
31661;DHT22;18267;52.234;7.444;2022-11-14T08:17:23;6.20;99.90
31661;DHT22;18267;52.234;7.444;2022-11-14T08:19:49;6.20;99.90
31661;DHT22;18267;52.234;7.444;2022-11-14T08:22:14;6.20;99.90
31661;DHT22;18267;52.234;7.444;2022-11-14T08:24:40;6.10;99.90
31661;DHT22;18267;52.234;7.444;2022-11-14T08:27:05;6.20;99.90
31661;DHT22;18267;52.234;7.444;2022-11-14T08:29:31;6.30;99.90
31661;DHT22;18267;52.234;7.444;2022-11-14T08:31:56;6.40;99.90
31661;DHT22;18267;52.234;7.444;2022-11-14T08:34:23;6.40;99.90
31661;DHT22;18267;52.234;7.444;2022-11-14T08:36:49;6.50;99.90
31661;DHT22;18267;52.234;7.444;2022-11-14T08:39:14;6.50;99.90
31661;DHT22;18267;52.234;7.444;2022-11-14T08:41:40;6.50;99.90
31661;DHT22;18267;52.234;7.444;2022-11-14T08:44:05;6.50;99.90
31661;DHT22;18267;52.234;7.444;2022-11-14T08:46:31;6.50;99.90
31661;DHT22;18267;52.234;7.444;2022-11-14T08:48:56;6.50;99.90
31661;DHT22;18267;52.234;7.444;2022-11-14T08:51:22;6.60;99.90
31661;DHT22;18267;52.234;7.444;2022-11-14T08:53:47;6.60;99.90
31661;DHT22;18267;52.234;7.444;2022-11-14T08:56:13;6.70;99.90
31661;DHT22;18267;52.234;7.444;2022-11-14T08:58:38;6.80;99.90
31661;DHT22;18267;52.234;7.444;2022-11-14T09:01:05;6.80;99.90
31661;DHT22;18267;52.234;7.444;2022-11-14T09:03:32;6.90;99.90
31661;DHT22;18267;52.234;7.444;2022-11-14T09:05:58;6.90;99.90
31661;DHT22;18267;52.234;7.444;2022-11-14T09:08:23;6.90;99.90
31661;DHT22;18267;52.234;7.444;2022-11-14T09:10:49;6.90;99.90
31661;DHT22;18267;52.234;7.444;2022-11-14T09:13:15;6.90;99.90
31661;DHT22;18267;52.234;7.444;2022-11-14T09:15:41;7.00;99.90
31661;DHT22;18267;52.234;7.444;2022-11-14T09:18:08;7.10;99.90
31661;DHT22;18267;52.234;7.444;2022-11-14T09:20:34;7.10;99.90
31661;DHT22;18267;52.234;7.444;2022-11-14T09:23:00;7.10;99.90
31661;DHT22;18267;52.234;7.444;2022-11-14T09:25:27;7.10;99.90
31661;DHT22;18267;52.234;7.444;2022-11-14T09:27:54;7.10;99.90
31661;DHT22;18267;52.234;7.444;2022-11-14T09:30:20;7.20;99.90
31661;DHT22;18267;52.234;7.444;2022-11-14T09:32:47;7.20;99.90
31661;DHT22;18267;52.234;7.444;2022-11-14T09:35:13;7.20;99.90
31661;DHT22;18267;52.234;7.444;2022-11-14T09:37:40;7.20;99.90
31661;DHT22;18267;52.234;7.444;2022-11-14T09:40:06;7.30;99.90
31661;DHT22;18267;52.234;7.444;2022-11-14T09:43:04;7.40;99.90
31661;DHT22;18267;52.234;7.444;2022-11-14T09:45:38;7.50;99.90
31661;DHT22;18267;52.234;7.444;2022-11-14T09:48:10;7.50;99.90
31661;DHT22;18267;52.234;7.444;2022-11-14T09:50:42;7.50;99.90
31661;DHT22;18267;52.234;7.444;2022-11-14T09:53:33;7.50;99.90
31661;DHT22;18267;52.234;7.444;2022-11-14T09:56:00;7.50;99.90
31661;DHT22;18267;52.234;7.444;2022-11-14T09:58:26;7.50;99.90
31661;DHT22;18267;52.234;7.444;2022-11-14T10:01:10;7.60;99.90
31661;DHT22;18267;52.234;7.444;2022-11-14T10:04:03;7.60;99.90
31661;DHT22;18267;52.234;7.444;2022-11-14T10:09:31;7.90;99.90
31661;DHT22;18267;52.234;7.444;2022-11-14T10:12:15;7.90;99.90
31661;DHT22;18267;52.234;7.444;2022-11-14T10:14:48;8.00;99.90
31661;DHT22;18267;52.234;7.444;2022-11-14T10:20:23;8.00;99.90
31661;DHT22;18267;52.234;7.444;2022-11-14T10:25:54;8.10;99.90
31661;DHT22;18267;52.234;7.444;2022-11-14T10:31:32;8.30;99.90
31661;DHT22;18267;52.234;7.444;2022-11-14T10:34:24;8.40;99.90
31661;DHT22;18267;52.234;7.444;2022-11-14T10:37:18;8.40;99.90
31661;DHT22;18267;52.234;7.444;2022-11-14T10:39:51;8.40;99.90
31661;DHT22;18267;52.234;7.444;2022-11-14T10:42:28;8.50;99.90
31661;DHT22;18267;52.234;7.444;2022-11-14T10:47:48;8.60;99.90
31661;DHT22;18267;52.234;7.444;2022-11-14T10:50:22;8.60;99.90
31661;DHT22;18267;52.234;7.444;2022-11-14T10:52:53;8.60;99.90
31661;DHT22;18267;52.234;7.444;2022-11-14T10:55:21;8.60;99.90
31661;DHT22;18267;52.234;7.444;2022-11-14T10:57:48;8.60;99.90
31661;DHT22;18267;52.234;7.444;2022-11-14T11:00:17;8.70;99.90
31661;DHT22;18267;52.234;7.444;2022-11-14T11:03:01;8.70;99.90
31661;DHT22;18267;52.234;7.444;2022-11-14T11:05:29;8.70;99.90
31661;DHT22;18267;52.234;7.444;2022-11-14T11:07:58;8.60;99.90
31661;DHT22;18267;52.234;7.444;2022-11-14T11:10:44;8.60;99.90
31661;DHT22;18267;52.234;7.444;2022-11-14T11:13:34;8.70;99.90
31661;DHT22;18267;52.234;7.444;2022-11-14T11:16:02;8.70;99.90
31661;DHT22;18267;52.234;7.444;2022-11-14T11:18:35;8.80;99.90
31661;DHT22;18267;52.234;7.444;2022-11-14T11:21:21;8.70;99.90
31661;DHT22;18267;52.234;7.444;2022-11-14T11:23:49;8.80;99.90
31661;DHT22;18267;52.234;7.444;2022-11-14T11:31:54;8.80;99.90
31661;DHT22;18267;52.234;7.444;2022-11-14T11:34:29;8.90;99.90
31661;DHT22;18267;52.234;7.444;2022-11-14T11:37:12;9.00;99.90
31661;DHT22;18267;52.234;7.444;2022-11-14T11:39:44;8.90;99.90
31661;DHT22;18267;52.234;7.444;2022-11-14T11:42:22;8.90;99.90
31661;DHT22;18267;52.234;7.444;2022-11-14T11:44:54;8.80;99.90
31661;DHT22;18267;52.234;7.444;2022-11-14T11:47:23;8.80;99.90
31661;DHT22;18267;52.234;7.444;2022-11-14T11:49:51;8.80;99.90
31661;DHT22;18267;52.234;7.444;2022-11-14T12:00:33;9.00;99.90
31661;DHT22;18267;52.234;7.444;2022-11-14T12:02:59;9.00;99.90
31661;DHT22;18267;52.234;7.444;2022-11-14T12:05:39;8.90;99.90
31661;DHT22;18267;52.234;7.444;2022-11-14T12:08:25;9.00;99.90
31661;DHT22;18267;52.234;7.444;2022-11-14T12:10:53;9.00;99.90
31661;DHT22;18267;52.234;7.444;2022-11-14T12:22:10;9.10;99.90
31661;DHT22;18267;52.234;7.444;2022-11-14T12:30:20;9.10;99.90
31661;DHT22;18267;52.234;7.444;2022-11-14T12:33:11;9.20;99.90
31661;DHT22;18267;52.234;7.444;2022-11-14T12:35:47;9.20;99.90
31661;DHT22;18267;52.234;7.444;2022-11-14T12:38:14;9.20;99.90
31661;DHT22;18267;52.234;7.444;2022-11-14T12:40:54;9.20;99.90
31661;DHT22;18267;52.234;7.444;2022-11-14T12:43:37;9.20;99.90
31661;DHT22;18267;52.234;7.444;2022-11-14T12:46:07;9.10;99.90
31661;DHT22;18267;52.234;7.444;2022-11-14T12:48:38;9.20;99.90
31661;DHT22;18267;52.234;7.444;2022-11-14T12:51:46;9.30;99.90
31661;DHT22;18267;52.234;7.444;2022-11-14T12:54:45;9.20;99.90
31661;DHT22;18267;52.234;7.444;2022-11-14T12:57:20;9.20;99.90
31661;DHT22;18267;52.234;7.444;2022-11-14T13:00:10;9.20;99.90
31661;DHT22;18267;52.234;7.444;2022-11-14T13:03:03;9.20;99.90
31661;DHT22;18267;52.234;7.444;2022-11-14T13:05:54;9.30;99.90
31661;DHT22;18267;52.234;7.444;2022-11-14T13:11:44;9.40;99.90
31661;DHT22;18267;52.234;7.444;2022-11-14T13:14:29;9.40;99.90
31661;DHT22;18267;52.234;7.444;2022-11-14T13:19:59;9.50;99.90
31661;DHT22;18267;52.234;7.444;2022-11-14T13:22:45;9.50;99.90
31661;DHT22;18267;52.234;7.444;2022-11-14T13:25:15;9.50;99.90
31661;DHT22;18267;52.234;7.444;2022-11-14T13:27:41;9.40;99.90
31661;DHT22;18267;52.234;7.444;2022-11-14T13:30:07;9.50;99.90
31661;DHT22;18267;52.234;7.444;2022-11-14T13:35:41;9.50;99.90
31661;DHT22;18267;52.234;7.444;2022-11-14T13:43:10;9.40;99.90
31661;DHT22;18267;52.234;7.444;2022-11-14T13:48:33;9.50;99.90
31661;DHT22;18267;52.234;7.444;2022-11-14T13:51:05;9.40;99.90
31661;DHT22;18267;52.234;7.444;2022-11-14T13:53:33;9.50;99.90
31661;DHT22;18267;52.234;7.444;2022-11-14T14:07:10;9.50;99.90
31661;DHT22;18267;52.234;7.444;2022-11-14T14:10:00;9.40;99.90
31661;DHT22;18267;52.234;7.444;2022-11-14T14:12:44;9.50;99.90
31661;DHT22;18267;52.234;7.444;2022-11-14T14:15:33;9.50;99.90
31661;DHT22;18267;52.234;7.444;2022-11-14T14:32:12;9.50;99.90
31661;DHT22;18267;52.234;7.444;2022-11-14T14:34:38;9.40;99.90
31661;DHT22;18267;52.234;7.444;2022-11-14T14:37:21;9.40;99.90
31661;DHT22;18267;52.234;7.444;2022-11-14T14:39:56;9.40;99.90
31661;DHT22;18267;52.234;7.444;2022-11-14T14:42:23;9.30;99.90
31661;DHT22;18267;52.234;7.444;2022-11-14T14:44:49;9.30;99.90
31661;DHT22;18267;52.234;7.444;2022-11-14T14:47:40;9.30;99.90
31661;DHT22;18267;52.234;7.444;2022-11-14T14:52:40;9.30;99.90
31661;DHT22;18267;52.234;7.444;2022-11-14T14:55:18;9.30;99.90
31661;DHT22;18267;52.234;7.444;2022-11-14T14:57:44;9.20;99.90
31661;DHT22;18267;52.234;7.444;2022-11-14T15:00:25;9.20;99.90
31661;DHT22;18267;52.234;7.444;2022-11-14T15:02:55;9.20;99.90
31661;DHT22;18267;52.234;7.444;2022-11-14T15:05:24;9.20;99.90
31661;DHT22;18267;52.234;7.444;2022-11-14T15:07:52;9.10;99.90
31661;DHT22;18267;52.234;7.444;2022-11-14T15:10:21;9.20;99.90
31661;DHT22;18267;52.234;7.444;2022-11-14T15:12:49;9.20;99.90
31661;DHT22;18267;52.234;7.444;2022-11-14T15:15:19;9.20;99.90
31661;DHT22;18267;52.234;7.444;2022-11-14T15:17:47;9.20;99.90
31661;DHT22;18267;52.234;7.444;2022-11-14T15:20:27;9.20;99.90
31661;DHT22;18267;52.234;7.444;2022-11-14T15:25:27;9.30;99.90
31661;DHT22;18267;52.234;7.444;2022-11-14T15:27:53;9.30;99.90
31661;DHT22;18267;52.234;7.444;2022-11-14T15:30:40;9.40;99.90
31661;DHT22;18267;52.234;7.444;2022-11-14T15:33:34;9.40;99.90
31661;DHT22;18267;52.234;7.444;2022-11-14T15:36:08;9.40;99.90
31661;DHT22;18267;52.234;7.444;2022-11-14T15:38:34;9.40;99.90
31661;DHT22;18267;52.234;7.444;2022-11-14T15:41:21;9.60;99.90
31661;DHT22;18267;52.234;7.444;2022-11-14T15:43:51;9.70;99.90
31661;DHT22;18267;52.234;7.444;2022-11-14T15:48:59;9.60;99.90
31661;DHT22;18267;52.234;7.444;2022-11-14T15:51:57;9.50;99.90
31661;DHT22;18267;52.234;7.444;2022-11-14T15:54:29;9.40;99.90
31661;DHT22;18267;52.234;7.444;2022-11-14T15:57:01;9.30;99.90
31661;DHT22;18267;52.234;7.444;2022-11-14T15:59:28;9.20;99.90
31661;DHT22;18267;52.234;7.444;2022-11-14T16:02:26;9.20;99.90
31661;DHT22;18267;52.234;7.444;2022-11-14T16:04:54;9.20;99.90
31661;DHT22;18267;52.234;7.444;2022-11-14T16:07:20;9.10;99.90
31661;DHT22;18267;52.234;7.444;2022-11-14T16:09:46;9.10;99.90
31661;DHT22;18267;52.234;7.444;2022-11-14T16:12:11;9.10;99.90
31661;DHT22;18267;52.234;7.444;2022-11-14T16:14:37;9.00;99.90
31661;DHT22;18267;52.234;7.444;2022-11-14T16:17:03;9.10;99.90
31661;DHT22;18267;52.234;7.444;2022-11-14T16:19:28;9.00;99.90
31661;DHT22;18267;52.234;7.444;2022-11-14T16:21:57;8.90;99.90
31661;DHT22;18267;52.234;7.444;2022-11-14T16:24:23;9.00;99.90
31661;DHT22;18267;52.234;7.444;2022-11-14T16:26:49;8.90;99.90
31661;DHT22;18267;52.234;7.444;2022-11-14T16:29:15;9.00;99.90
31661;DHT22;18267;52.234;7.444;2022-11-14T16:31:41;9.00;99.90
31661;DHT22;18267;52.234;7.444;2022-11-14T16:34:14;8.90;99.90
31661;DHT22;18267;52.234;7.444;2022-11-14T16:36:40;9.00;99.90
31661;DHT22;18267;52.234;7.444;2022-11-14T16:39:06;8.90;99.90
31661;DHT22;18267;52.234;7.444;2022-11-14T16:41:35;8.90;99.90
31661;DHT22;18267;52.234;7.444;2022-11-14T16:44:01;8.90;99.90
31661;DHT22;18267;52.234;7.444;2022-11-14T16:46:26;9.00;99.90
31661;DHT22;18267;52.234;7.444;2022-11-14T16:48:53;9.00;99.90
31661;DHT22;18267;52.234;7.444;2022-11-14T16:51:19;9.10;99.90
31661;DHT22;18267;52.234;7.444;2022-11-14T16:53:45;9.10;99.90
31661;DHT22;18267;52.234;7.444;2022-11-14T16:56:11;9.10;99.90
31661;DHT22;18267;52.234;7.444;2022-11-14T16:58:37;9.20;99.90
31661;DHT22;18267;52.234;7.444;2022-11-14T17:01:06;9.20;99.90
31661;DHT22;18267;52.234;7.444;2022-11-14T17:03:32;9.30;99.90
31661;DHT22;18267;52.234;7.444;2022-11-14T17:05:58;9.40;99.90
31661;DHT22;18267;52.234;7.444;2022-11-14T17:08:23;9.40;99.90
31661;DHT22;18267;52.234;7.444;2022-11-14T17:10:49;9.40;99.90
31661;DHT22;18267;52.234;7.444;2022-11-14T17:13:15;9.40;99.90
31661;DHT22;18267;52.234;7.444;2022-11-14T17:15:43;9.50;99.90
31661;DHT22;18267;52.234;7.444;2022-11-14T17:18:08;9.40;99.90
31661;DHT22;18267;52.234;7.444;2022-11-14T17:20:36;9.40;99.90
31661;DHT22;18267;52.234;7.444;2022-11-14T17:23:02;9.50;99.90
31661;DHT22;18267;52.234;7.444;2022-11-14T17:25:29;9.50;99.90
31661;DHT22;18267;52.234;7.444;2022-11-14T17:27:56;9.40;99.90
31661;DHT22;18267;52.234;7.444;2022-11-14T17:30:22;9.40;99.90